Time;durP1;ratioP1;P1;durP2;ratioP2;P2;SDS_P1;SDS_P2;PMS_P1;PMS_P2;Temp;Humidity;BMP_temperature;BMP_pressure;BME280_temperature;BME280_humidity;BME280_pressure;Samples;Min_cycle;Max_cycle;Signal;HPM_P1;HPM_P2
2023/02/25 00:01:10;;;;;;;16.73;2.23;;;4.60;99.90;;;;;;5098465;28;20439;-65
2023/02/25 00:03:45;;;;;;;2.60;1.77;;;4.50;99.90;;;;;;5098089;28;20490;-63
2023/02/25 00:06:13;;;;;;;1.63;1.23;;;4.50;99.90;;;;;;5098100;28;20462;-65
2023/02/25 00:08:44;;;;;;;10.23;1.53;;;4.40;99.90;;;;;;5097589;28;20450;-64
2023/02/25 00:11:12;;;;;;;2.50;1.17;;;4.40;99.90;;;;;;5097727;28;20462;-62
2023/02/25 00:13:41;;;;;;;7.03;1.50;;;4.40;99.90;;;;;;5097290;28;20446;-63
2023/02/25 00:16:09;;;;;;;6.07;1.70;;;4.40;99.90;;;;;;5097324;28;20474;-65
2023/02/25 00:18:39;;;;;;;4.97;2.27;;;4.40;99.90;;;;;;5097163;28;20928;-65
2023/02/25 00:21:08;;;;;;;11.13;1.37;;;4.40;99.90;;;;;;5096885;28;20438;-64
2023/02/25 00:23:35;;;;;;;5.50;1.63;;;4.40;99.90;;;;;;5096627;28;20460;-65
2023/02/25 00:26:05;;;;;;;3.00;1.80;;;4.40;99.90;;;;;;5096575;28;20436;-63
2023/02/25 00:28:35;;;;;;;3.77;1.67;;;4.40;99.90;;;;;;5097176;28;20474;-64
2023/02/25 00:31:10;;;;;;;15.43;2.07;;;4.40;99.90;;;;;;5096530;28;20468;-65
2023/02/25 00:33:40;;;;;;;3.80;1.33;;;4.40;99.90;;;;;;5096757;28;20487;-64
2023/02/25 00:36:08;;;;;;;10.90;1.70;;;4.30;99.90;;;;;;5097478;28;20494;-62
2023/02/25 00:38:36;;;;;;;6.17;1.60;;;4.20;99.90;;;;;;5096841;28;20462;-65
2023/02/25 00:41:10;;;;;;;2.70;0.93;;;4.10;99.90;;;;;;5096755;28;20445;-64
2023/02/25 00:43:38;;;;;;;1.53;0.70;;;4.00;99.90;;;;;;5097511;28;20436;-64
2023/02/25 00:46:08;;;;;;;3.53;0.80;;;3.90;99.90;;;;;;5097441;28;20445;-66
2023/02/25 00:48:35;;;;;;;1.93;1.10;;;3.60;99.90;;;;;;5097920;28;20433;-64
2023/02/25 00:51:06;;;;;;;7.80;1.63;;;3.40;99.90;;;;;;5097677;28;20426;-65
2023/02/25 00:53:33;;;;;;;2.37;1.20;;;3.30;99.90;;;;;;5097686;28;20429;-64
2023/02/25 00:56:01;;;;;;;1.33;1.23;;;3.20;99.90;;;;;;5097246;28;20470;-62
2023/02/25 00:58:28;;;;;;;1.70;1.00;;;3.20;99.90;;;;;;5097701;28;20453;-64
2023/02/25 01:00:55;;;;;;;1.87;1.20;;;3.20;99.90;;;;;;5097406;28;20482;-63
2023/02/25 01:03:23;;;;;;;1.77;0.83;;;3.10;99.90;;;;;;5097639;28;20919;-64
2023/02/25 01:05:51;;;;;;;1.50;1.00;;;3.10;99.90;;;;;;5097400;28;20485;-65
2023/02/25 01:08:20;;;;;;;4.00;2.20;;;3.10;99.90;;;;;;5097371;28;20457;-63
2023/02/25 01:10:53;;;;;;;1.07;0.90;;;3.20;99.90;;;;;;5097323;28;20430;-61
2023/02/25 01:13:25;;;;;;;4.17;1.60;;;3.20;99.90;;;;;;5097443;28;20430;-63
2023/02/25 01:15:52;;;;;;;1.67;0.97;;;3.20;99.90;;;;;;5097324;28;20457;-62
2023/02/25 01:18:19;;;;;;;3.90;1.13;;;3.20;99.90;;;;;;5097840;28;20449;-62
2023/02/25 01:20:47;;;;;;;3.70;1.03;;;3.20;99.90;;;;;;5097481;28;20473;-65
2023/02/25 01:23:14;;;;;;;1.70;1.10;;;3.20;99.90;;;;;;5097400;28;20612;-62
2023/02/25 01:25:41;;;;;;;10.63;1.87;;;3.20;99.90;;;;;;5096092;28;20446;-64
2023/02/25 01:28:08;;;;;;;0.93;0.73;;;3.30;99.90;;;;;;5097185;28;20426;-64
2023/02/25 01:30:37;;;;;;;6.87;1.43;;;3.30;99.90;;;;;;5097531;28;20438;-63
2023/02/25 01:33:04;;;;;;;1.10;0.80;;;3.40;99.90;;;;;;5097038;28;20441;-63
2023/02/25 01:35:30;;;;;;;2.67;1.70;;;3.40;99.90;;;;;;5097622;28;20458;-64
2023/02/25 01:37:59;;;;;;;4.00;1.63;;;3.50;99.90;;;;;;5097380;28;20481;-63
2023/02/25 01:40:26;;;;;;;1.97;0.93;;;3.50;99.90;;;;;;5097632;28;20453;-65
2023/02/25 01:42:53;;;;;;;1.73;1.60;;;3.60;99.90;;;;;;5096771;28;20457;-65
2023/02/25 01:45:29;;;;;;;3.93;1.63;;;3.60;99.90;;;;;;5096712;28;20485;-63
2023/02/25 01:48:05;;;;;;;3.57;1.57;;;3.70;99.90;;;;;;5097546;28;20435;-64
2023/02/25 01:50:39;;;;;;;1.10;0.90;;;3.70;99.90;;;;;;5097019;28;20433;-63
2023/02/25 01:53:08;;;;;;;1.63;1.20;;;3.70;99.90;;;;;;5097827;28;20453;-66
2023/02/25 01:55:36;;;;;;;4.20;1.50;;;3.60;99.90;;;;;;5096984;28;20426;-63
2023/02/25 01:58:05;;;;;;;2.30;2.10;;;3.70;99.90;;;;;;5096909;28;20486;-63
2023/02/25 02:00:42;;;;;;;3.60;1.50;;;3.70;99.90;;;;;;5096746;28;20498;-64
2023/02/25 02:03:15;;;;;;;5.23;1.33;;;3.80;99.90;;;;;;5096762;28;20470;-65
2023/02/25 02:05:55;;;;;;;3.10;1.43;;;3.80;99.90;;;;;;5096952;28;20493;-64
2023/02/25 02:08:28;;;;;;;2.33;1.30;;;3.80;99.90;;;;;;5097583;28;20446;-62
2023/02/25 02:10:56;;;;;;;2.60;1.50;;;3.80;99.90;;;;;;5097183;28;20430;-64
2023/02/25 02:13:26;;;;;;;1.90;1.70;;;3.80;99.90;;;;;;5096795;28;20454;-64
2023/02/25 02:16:05;;;;;;;3.33;1.03;;;3.80;99.90;;;;;;5096350;28;20423;-64
2023/02/25 02:18:35;;;;;;;2.03;1.77;;;3.80;99.90;;;;;;5096643;28;20490;-65
2023/02/25 02:21:17;;;;;;;5.60;2.87;;;3.80;99.90;;;;;;5096838;28;20438;-63
2023/02/25 02:24:05;;;;;;;2.20;1.27;;;3.80;99.90;;;;;;5099342;28;20402;-61
2023/02/25 02:26:50;;;;;;;1.10;0.90;;;3.80;99.90;;;;;;5100647;28;20426;-63
2023/02/25 02:29:48;;;;;;;1.77;1.03;;;3.80;99.90;;;;;;5100424;28;20472;-65
2023/02/25 02:32:24;;;;;;;3.07;1.50;;;3.80;99.90;;;;;;5100284;28;20463;-61
2023/02/25 02:35:03;;;;;;;5.07;1.30;;;3.90;99.90;;;;;;5100824;28;20442;-65
2023/02/25 02:37:39;;;;;;;1.20;1.00;;;3.90;99.90;;;;;;5100741;28;20446;-65
2023/02/25 02:40:19;;;;;;;2.17;1.40;;;3.80;99.90;;;;;;5099990;28;20441;-65
2023/02/25 02:43:00;;;;;;;1.67;1.00;;;3.90;99.90;;;;;;5099326;28;20469;-65
2023/02/25 02:45:33;;;;;;;2.03;1.47;;;3.80;99.90;;;;;;5099283;28;20470;-65
2023/02/25 02:48:05;;;;;;;1.77;1.00;;;3.90;99.90;;;;;;5099126;28;20465;-65
2023/02/25 02:50:42;;;;;;;2.20;1.10;;;3.90;99.90;;;;;;5099124;28;20442;-62
2023/02/25 02:53:14;;;;;;;3.47;1.47;;;3.90;99.90;;;;;;5098807;28;20465;-63
2023/02/25 02:55:44;;;;;;;1.23;1.13;;;3.90;99.90;;;;;;5099934;28;20426;-64
2023/02/25 02:58:16;;;;;;;1.10;1.00;;;4.00;99.90;;;;;;5100090;28;20465;-65
2023/02/25 03:00:47;;;;;;;1.80;1.10;;;4.00;99.90;;;;;;5100309;28;20410;-64
2023/02/25 03:03:17;;;;;;;1.73;1.33;;;4.00;99.90;;;;;;5100246;28;20427;-64
2023/02/25 03:05:49;;;;;;;1.70;1.60;;;3.90;99.90;;;;;;5099699;28;20474;-66
2023/02/25 03:08:20;;;;;;;2.23;1.53;;;4.00;99.90;;;;;;5100071;28;20426;-65
2023/02/25 03:10:47;;;;;;;3.27;1.47;;;4.00;99.90;;;;;;5100511;28;20415;-65
2023/02/25 03:13:15;;;;;;;1.63;1.20;;;4.00;99.90;;;;;;5100220;28;20457;-62
2023/02/25 03:15:43;;;;;;;4.03;1.90;;;3.90;99.90;;;;;;5099203;28;20467;-65
2023/02/25 03:18:18;;;;;;;2.20;1.50;;;3.90;99.90;;;;;;5099126;28;20462;-65
2023/02/25 03:20:49;;;;;;;1.50;1.40;;;3.90;99.90;;;;;;5099706;28;20500;-62
2023/02/25 03:23:20;;;;;;;1.20;1.10;;;3.90;99.90;;;;;;5100070;28;20512;-66
2023/02/25 03:25:52;;;;;;;1.57;1.07;;;3.80;99.90;;;;;;5099496;28;20485;-63
2023/02/25 03:28:28;;;;;;;1.13;1.03;;;3.90;99.90;;;;;;5099622;28;20441;-65
2023/02/25 03:31:01;;;;;;;2.00;1.57;;;3.80;99.90;;;;;;5099306;28;20440;-64
2023/02/25 03:33:36;;;;;;;3.93;1.73;;;3.30;99.90;;;;;;5099443;28;20422;-64
2023/02/25 03:36:08;;;;;;;1.00;0.90;;;3.90;99.90;;;;;;5099291;28;20418;-65
2023/02/25 03:38:39;;;;;;;1.30;0.90;;;3.80;99.90;;;;;;5099860;28;20498;-65
2023/02/25 03:41:07;;;;;;;1.67;1.00;;;3.80;99.90;;;;;;5099844;28;20418;-64
2023/02/25 03:43:40;;;;;;;2.70;1.20;;;3.80;99.90;;;;;;5099576;28;20490;-64
2023/02/25 03:46:08;;;;;;;0.90;0.80;;;3.80;99.90;;;;;;5099102;28;20452;-66
2023/02/25 03:48:38;;;;;;;1.30;1.00;;;3.80;99.90;;;;;;5099356;28;20451;-62
2023/02/25 03:51:06;;;;;;;2.10;1.20;;;3.70;99.90;;;;;;5099878;28;20453;-65
2023/02/25 03:53:34;;;;;;;1.50;1.07;;;3.60;99.90;;;;;;5099339;28;20439;-63
2023/02/25 03:56:05;;;;;;;6.03;1.13;;;3.60;99.90;;;;;;5100022;28;20435;-63
2023/02/25 03:58:33;;;;;;;1.17;1.03;;;3.70;99.90;;;;;;5100497;28;20418;-62
2023/02/25 04:01:03;;;;;;;1.13;0.87;;;3.70;99.90;;;;;;5100495;28;20454;-62
2023/02/25 04:03:30;;;;;;;1.33;1.20;;;3.70;99.90;;;;;;5100231;28;20426;-63
2023/02/25 04:05:58;;;;;;;1.40;1.30;;;3.60;99.90;;;;;;5099901;28;20529;-62
2023/02/25 04:08:25;;;;;;;1.30;1.00;;;3.60;99.90;;;;;;5100220;28;20449;-65
2023/02/25 04:10:52;;;;;;;1.30;0.90;;;4.40;99.90;;;;;;5099899;28;20470;-62
2023/02/25 04:13:20;;;;;;;1.00;0.80;;;3.80;99.90;;;;;;5100060;28;20474;-62
2023/02/25 04:15:47;;;;;;;1.00;0.83;;;3.80;99.90;;;;;;5099645;28;20430;-64
2023/02/25 04:18:15;;;;;;;1.10;0.93;;;3.70;99.90;;;;;;5099591;28;20423;-62
2023/02/25 04:20:41;;;;;;;0.80;0.60;;;3.80;99.90;;;;;;5100129;28;20446;-64
2023/02/25 04:23:13;;;;;;;1.03;0.70;;;3.70;99.90;;;;;;5099872;28;20930;-63
2023/02/25 04:25:40;;;;;;;8.80;1.30;;;3.70;99.90;;;;;;5099017;28;20494;-61
2023/02/25 04:28:07;;;;;;;1.10;0.70;;;3.60;99.90;;;;;;5098331;28;20454;-64
2023/02/25 04:30:34;;;;;;;1.20;1.00;;;3.70;99.90;;;;;;5098752;28;20898;-64
2023/02/25 04:33:01;;;;;;;0.90;0.77;;;3.70;99.90;;;;;;5098222;28;20462;-64
2023/02/25 04:35:28;;;;;;;0.90;0.70;;;3.70;99.90;;;;;;5098388;28;20407;-64
2023/02/25 04:37:58;;;;;;;1.20;1.00;;;3.70;99.90;;;;;;5098161;28;20423;-63
2023/02/25 04:40:26;;;;;;;0.90;0.70;;;3.70;99.90;;;;;;5098215;28;20442;-65
2023/02/25 04:42:53;;;;;;;1.83;1.10;;;3.60;99.90;;;;;;5098230;28;20426;-63
2023/02/25 04:45:24;;;;;;;1.53;1.10;;;3.60;99.90;;;;;;5097008;28;20510;-64
2023/02/25 04:47:56;;;;;;;0.90;0.70;;;3.60;99.90;;;;;;5098865;28;20425;-62
2023/02/25 04:50:24;;;;;;;1.00;0.80;;;3.60;99.90;;;;;;5098733;28;20451;-65
2023/02/25 04:52:50;;;;;;;1.00;0.70;;;3.60;99.90;;;;;;5098725;28;20438;-63
2023/02/25 04:55:18;;;;;;;1.33;0.83;;;3.60;99.90;;;;;;5098416;28;20476;-63
2023/02/25 04:57:47;;;;;;;1.00;0.80;;;3.60;99.90;;;;;;5098452;28;20430;-64
2023/02/25 05:00:17;;;;;;;0.90;0.70;;;3.60;99.90;;;;;;5098078;28;20450;-64
2023/02/25 05:02:45;;;;;;;1.27;0.93;;;3.60;99.90;;;;;;5098469;28;20456;-65
2023/02/25 05:05:15;;;;;;;0.90;0.80;;;3.60;99.90;;;;;;5097735;28;20442;-65
2023/02/25 05:07:43;;;;;;;1.20;0.80;;;3.60;99.90;;;;;;5097176;28;20466;-64
2023/02/25 05:10:13;;;;;;;0.87;0.63;;;3.60;99.90;;;;;;5097177;28;20507;-66
2023/02/25 05:12:40;;;;;;;1.57;0.90;;;3.50;99.90;;;;;;5097668;28;20466;-60
2023/02/25 05:15:10;;;;;;;2.13;0.77;;;3.50;99.90;;;;;;5096566;28;20425;-63
2023/02/25 05:17:37;;;;;;;0.83;0.70;;;3.50;99.90;;;;;;5097411;28;20460;-63
2023/02/25 05:20:10;;;;;;;1.00;0.80;;;3.40;99.90;;;;;;5097870;28;20423;-65
2023/02/25 05:22:37;;;;;;;1.20;0.90;;;3.50;99.90;;;;;;5097050;28;20487;-65
2023/02/25 05:25:05;;;;;;;0.90;0.70;;;3.50;99.90;;;;;;5096785;28;20441;-66
2023/02/25 05:27:33;;;;;;;1.00;0.80;;;3.40;99.90;;;;;;5097776;28;20510;-64
2023/02/25 05:30:02;;;;;;;1.37;0.93;;;3.50;99.90;;;;;;5097717;28;20500;-65
2023/02/25 05:32:31;;;;;;;2.60;0.90;;;3.50;99.90;;;;;;5098932;28;20495;-61
2023/02/25 05:34:59;;;;;;;0.80;0.67;;;3.60;99.90;;;;;;5098089;28;20459;-65
2023/02/25 05:37:26;;;;;;;1.00;0.80;;;3.60;99.90;;;;;;5098863;28;20460;-64
2023/02/25 05:39:53;;;;;;;1.03;0.77;;;3.70;99.90;;;;;;5098425;28;20453;-64
2023/02/25 05:42:20;;;;;;;2.70;1.50;;;3.70;99.90;;;;;;5098341;28;20415;-62
2023/02/25 05:44:49;;;;;;;0.87;0.67;;;3.60;99.90;;;;;;5098523;28;20446;-62
2023/02/25 05:47:16;;;;;;;1.73;0.93;;;3.50;99.90;;;;;;5098370;28;20489;-64
2023/02/25 05:49:44;;;;;;;0.90;0.70;;;3.50;99.90;;;;;;5098410;28;20434;-64
2023/02/25 05:52:12;;;;;;;1.40;0.93;;;3.50;99.90;;;;;;5098246;28;20466;-64
2023/02/25 05:54:39;;;;;;;1.10;0.83;;;3.40;99.90;;;;;;5098378;28;20473;-65
2023/02/25 05:57:06;;;;;;;0.97;0.80;;;3.40;99.90;;;;;;5099832;28;20456;-61
2023/02/25 05:59:35;;;;;;;0.90;0.80;;;3.40;99.90;;;;;;5102336;28;20446;-65
2023/02/25 06:02:02;;;;;;;2.37;1.00;;;3.30;99.90;;;;;;5102176;28;20453;-63
2023/02/25 06:04:29;;;;;;;1.20;0.90;;;3.30;99.90;;;;;;5101972;28;20442;-64
2023/02/25 06:06:57;;;;;;;1.00;0.90;;;3.30;99.90;;;;;;5101327;28;20978;-64
2023/02/25 06:09:25;;;;;;;1.07;0.97;;;3.20;99.90;;;;;;5101456;28;20462;-63
2023/02/25 06:11:52;;;;;;;1.13;1.03;;;3.30;99.90;;;;;;5101714;28;20435;-64
2023/02/25 06:14:19;;;;;;;1.93;0.90;;;3.20;99.90;;;;;;5101139;28;20467;-61
2023/02/25 06:16:46;;;;;;;1.63;0.73;;;3.30;99.90;;;;;;5101831;28;20450;-64
2023/02/25 06:19:13;;;;;;;1.10;1.00;;;3.30;99.90;;;;;;5101139;28;20458;-63
2023/02/25 06:21:40;;;;;;;1.93;0.93;;;3.20;99.90;;;;;;5100924;28;20430;-65
2023/02/25 06:24:10;;;;;;;3.47;1.17;;;3.10;99.90;;;;;;5099992;28;20450;-65
2023/02/25 06:26:40;;;;;;;2.63;1.00;;;3.20;99.90;;;;;;5100255;28;20489;-67
2023/02/25 06:29:07;;;;;;;1.40;0.90;;;3.10;99.90;;;;;;5100956;28;20457;-64
2023/02/25 06:31:34;;;;;;;3.07;1.47;;;3.10;99.90;;;;;;5099619;28;20531;-64
2023/02/25 06:34:01;;;;;;;2.83;1.03;;;3.10;99.90;;;;;;5099976;28;20434;-65
2023/02/25 06:36:28;;;;;;;1.07;0.90;;;3.10;99.90;;;;;;5100420;28;20441;-65
2023/02/25 06:38:55;;;;;;;1.60;0.97;;;3.10;99.90;;;;;;5100263;28;20422;-63
2023/02/25 06:41:24;;;;;;;1.77;0.73;;;3.10;99.90;;;;;;5099833;28;20445;-65
2023/02/25 06:43:51;;;;;;;0.90;0.80;;;3.10;99.90;;;;;;5100035;28;20422;-65
2023/02/25 06:46:23;;;;;;;1.10;1.00;;;3.10;99.90;;;;;;5099653;28;20485;-64
2023/02/25 06:48:50;;;;;;;1.00;0.77;;;3.10;99.90;;;;;;5099615;28;20426;-62
2023/02/25 06:51:17;;;;;;;1.53;0.87;;;3.10;99.90;;;;;;5099550;28;20442;-63
2023/02/25 06:53:46;;;;;;;0.90;0.73;;;3.10;99.90;;;;;;5100701;28;20490;-64
2023/02/25 06:56:14;;;;;;;1.33;0.90;;;3.00;99.90;;;;;;5099741;28;20418;-64
2023/02/25 06:58:42;;;;;;;1.30;1.13;;;2.90;99.90;;;;;;5099823;28;20473;-65
2023/02/25 07:01:13;;;;;;;1.40;0.93;;;2.90;99.90;;;;;;5100113;28;20426;-66
2023/02/25 07:03:42;;;;;;;1.00;0.70;;;2.90;99.90;;;;;;5100382;28;20422;-63
2023/02/25 07:06:09;;;;;;;1.37;1.27;;;2.90;99.90;;;;;;5100265;28;20496;-65
2023/02/25 07:08:36;;;;;;;1.87;0.93;;;2.80;99.90;;;;;;5099833;28;20456;-65
2023/02/25 07:11:14;;;;;;;1.10;0.90;;;2.80;99.90;;;;;;5099844;28;20465;-63
2023/02/25 07:13:47;;;;;;;0.90;0.80;;;2.70;99.90;;;;;;5099602;28;20466;-61
2023/02/25 07:16:15;;;;;;;1.50;1.20;;;2.80;99.90;;;;;;5099172;28;20462;-65
2023/02/25 07:18:43;;;;;;;0.87;0.60;;;2.80;99.90;;;;;;5099071;28;20450;-63
2023/02/25 07:21:11;;;;;;;1.50;1.03;;;2.90;99.90;;;;;;5099050;28;20461;-62
2023/02/25 07:23:38;;;;;;;1.93;1.00;;;2.90;99.90;;;;;;5099672;28;20429;-66
2023/02/25 07:26:08;;;;;;;0.90;0.77;;;3.00;99.90;;;;;;5098574;28;20482;-65
2023/02/25 07:28:36;;;;;;;1.13;0.87;;;3.10;99.90;;;;;;5099633;28;20433;-65
2023/02/25 07:31:09;;;;;;;1.20;0.93;;;3.00;99.90;;;;;;5099217;28;20509;-65
2023/02/25 07:33:36;;;;;;;1.37;0.90;;;3.10;99.90;;;;;;5099064;28;20426;-63
2023/02/25 07:36:04;;;;;;;1.33;0.63;;;3.20;99.90;;;;;;5099733;28;20426;-63
2023/02/25 07:38:32;;;;;;;0.93;0.70;;;3.20;99.90;;;;;;5099760;28;20498;-64
2023/02/25 07:41:04;;;;;;;0.93;0.83;;;3.20;99.90;;;;;;5099996;28;20502;-62
2023/02/25 07:43:31;;;;;;;1.40;0.80;;;3.30;99.90;;;;;;5099534;28;20470;-62
2023/02/25 07:45:58;;;;;;;1.27;1.07;;;3.40;99.90;;;;;;5099777;28;20465;-61
2023/02/25 07:48:28;;;;;;;1.23;0.83;;;3.40;99.90;;;;;;5099160;28;20446;-65
2023/02/25 07:50:55;;;;;;;1.00;0.80;;;4.10;99.90;;;;;;5099556;28;20407;-62
2023/02/25 07:53:24;;;;;;;1.33;1.00;;;3.50;99.90;;;;;;5099369;28;20443;-64
2023/02/25 07:55:51;;;;;;;0.90;0.70;;;3.50;99.90;;;;;;5098650;28;20554;-62
2023/02/25 07:58:18;;;;;;;1.00;0.87;;;3.50;99.90;;;;;;5099023;28;20426;-64
2023/02/25 08:00:45;;;;;;;1.30;0.80;;;3.50;99.90;;;;;;5099157;28;20450;-65
2023/02/25 08:03:12;;;;;;;1.77;0.90;;;3.50;99.90;;;;;;5099089;28;20910;-64
2023/02/25 08:05:41;;;;;;;1.23;1.00;;;3.50;99.90;;;;;;5099226;28;20470;-64
2023/02/25 08:08:10;;;;;;;1.53;1.10;;;3.50;99.90;;;;;;5099259;28;20549;-64
2023/02/25 08:10:37;;;;;;;0.93;0.70;;;3.60;99.90;;;;;;5098969;28;20418;-61
2023/02/25 08:13:04;;;;;;;0.80;0.67;;;3.60;99.90;;;;;;5099308;28;20399;-64
2023/02/25 08:15:33;;;;;;;0.80;0.60;;;3.60;99.90;;;;;;5098939;28;20418;-64
2023/02/25 08:18:00;;;;;;;0.80;0.60;;;3.70;99.90;;;;;;5098841;28;20458;-66
2023/02/25 08:20:29;;;;;;;1.33;0.83;;;3.70;99.90;;;;;;5097605;28;20449;-63
2023/02/25 08:22:58;;;;;;;1.17;0.90;;;3.70;99.90;;;;;;5098588;28;20446;-64
2023/02/25 08:25:27;;;;;;;1.10;0.70;;;3.60;99.90;;;;;;5098520;28;20418;-64
2023/02/25 08:27:53;;;;;;;1.00;0.70;;;3.50;99.90;;;;;;5098495;28;20517;-62
2023/02/25 08:30:20;;;;;;;0.80;0.70;;;3.50;99.90;;;;;;5098230;28;20454;-66
2023/02/25 08:32:48;;;;;;;0.90;0.60;;;3.60;99.90;;;;;;5098600;28;20463;-65
2023/02/25 08:35:15;;;;;;;1.10;0.70;;;3.50;99.90;;;;;;5098829;28;20449;-65
2023/02/25 08:37:44;;;;;;;0.97;0.70;;;3.50;99.90;;;;;;5098439;28;20443;-64
2023/02/25 08:40:13;;;;;;;1.40;0.80;;;3.60;99.90;;;;;;5096141;28;20522;-63
2023/02/25 08:42:46;;;;;;;1.57;0.83;;;3.60;99.90;;;;;;5096376;28;20443;-65
2023/02/25 08:45:13;;;;;;;3.73;1.60;;;3.60;99.90;;;;;;5096455;28;20481;-65
2023/02/25 08:47:40;;;;;;;1.23;1.00;;;3.50;99.90;;;;;;5097962;28;20478;-62
2023/02/25 08:50:09;;;;;;;1.40;0.97;;;3.60;99.90;;;;;;5098286;28;20501;-64
2023/02/25 08:52:36;;;;;;;1.70;1.43;;;3.50;99.90;;;;;;5097516;28;20441;-64
2023/02/25 08:55:03;;;;;;;1.20;0.90;;;3.50;99.90;;;;;;5097952;28;20442;-65
2023/02/25 08:57:31;;;;;;;1.40;1.00;;;3.60;99.90;;;;;;5096768;28;20450;-61
2023/02/25 08:59:59;;;;;;;1.30;1.20;;;3.50;99.90;;;;;;5096304;28;20447;-63
2023/02/25 09:02:26;;;;;;;0.90;0.80;;;3.50;99.90;;;;;;5095991;28;20550;-64
2023/02/25 09:04:53;;;;;;;1.13;0.90;;;3.50;99.90;;;;;;5096247;28;20438;-64
2023/02/25 09:07:20;;;;;;;1.10;1.00;;;3.50;99.90;;;;;;5096418;28;20482;-64
2023/02/25 09:09:47;;;;;;;0.80;0.70;;;3.50;99.90;;;;;;5097231;28;20843;-64
2023/02/25 09:12:14;;;;;;;3.77;1.80;;;3.50;99.90;;;;;;5097108;28;20462;-64
2023/02/25 09:14:43;;;;;;;1.80;0.97;;;3.40;99.90;;;;;;5098197;28;20866;-64
2023/02/25 09:17:10;;;;;;;1.40;1.10;;;3.40;99.90;;;;;;5097559;28;20426;-61
2023/02/25 09:19:39;;;;;;;1.03;0.93;;;3.40;99.90;;;;;;5097364;28;20450;-63
2023/02/25 09:22:10;;;;;;;1.40;1.10;;;3.40;99.90;;;;;;5097884;28;20426;-66
2023/02/25 09:24:37;;;;;;;1.17;1.00;;;3.40;99.90;;;;;;5097886;28;20473;-65
2023/02/25 09:27:06;;;;;;;2.07;1.53;;;3.50;99.90;;;;;;5097871;28;20481;-62
2023/02/25 09:29:33;;;;;;;1.07;0.90;;;3.50;99.90;;;;;;5097733;28;20482;-64
2023/02/25 09:32:04;;;;;;;0.90;0.70;;;3.60;99.90;;;;;;5097240;28;20419;-64
2023/02/25 09:34:32;;;;;;;1.37;1.00;;;3.70;99.90;;;;;;5097840;28;20467;-63
2023/02/25 09:36:59;;;;;;;2.30;1.10;;;3.70;99.90;;;;;;5097670;28;20438;-62
2023/02/25 09:39:28;;;;;;;0.90;0.70;;;3.80;99.90;;;;;;5097483;28;20446;-67
2023/02/25 09:42:02;;;;;;;1.23;0.70;;;4.50;99.90;;;;;;5097222;28;20442;-66
2023/02/25 09:44:30;;;;;;;1.23;0.80;;;4.00;99.90;;;;;;5097054;28;20449;-64
2023/02/25 09:47:04;;;;;;;0.90;0.67;;;4.00;99.90;;;;;;5097426;28;20497;-62
2023/02/25 09:49:38;;;;;;;1.00;0.63;;;4.00;99.90;;;;;;5096881;28;20454;-61
2023/02/25 09:52:18;;;;;;;1.30;0.77;;;4.10;99.90;;;;;;5097223;28;20482;-64
2023/02/25 09:54:47;;;;;;;2.50;0.90;;;4.30;99.90;;;;;;5097616;28;20387;-62
2023/02/25 09:57:18;;;;;;;1.30;0.80;;;4.30;99.90;;;;;;5097957;28;20462;-61
2023/02/25 09:59:46;;;;;;;1.00;0.80;;;4.30;99.90;;;;;;5097046;28;20422;-65
2023/02/25 10:02:36;;;;;;;1.17;1.07;;;4.20;99.90;;;;;;5097520;28;20430;-62
2023/02/25 10:05:25;;;;;;;1.40;1.23;;;4.10;99.90;;;;;;5097904;28;20451;-66
2023/02/25 10:08:01;;;;;;;1.90;1.03;;;4.00;99.90;;;;;;5097638;28;20451;-63
2023/02/25 10:10:38;;;;;;;3.10;2.37;;;4.10;99.90;;;;;;5098131;28;20835;-63
2023/02/25 10:13:19;;;;;;;3.57;1.73;;;4.20;99.90;;;;;;5097508;28;20406;-62
2023/02/25 10:15:58;;;;;;;0.80;0.60;;;3.90;99.90;;;;;;5097764;28;20402;-63
2023/02/25 10:18:44;;;;;;;0.80;0.60;;;4.40;99.90;;;;;;5097743;28;20423;-63
2023/02/25 10:21:23;;;;;;;2.40;0.90;;;4.60;99.90;;;;;;5097610;28;20450;-63
2023/02/25 10:24:09;;;;;;;3.33;0.77;;;4.70;99.90;;;;;;5097666;28;20430;-59
2023/02/25 10:26:42;;;;;;;1.00;0.60;;;4.70;99.90;;;;;;5097495;28;20462;-65
2023/02/25 10:29:19;;;;;;;0.90;0.70;;;4.70;99.90;;;;;;5098015;28;20479;-62
2023/02/25 10:31:46;;;;;;;1.50;0.97;;;4.60;99.90;;;;;;5097598;28;20462;-61
2023/02/25 10:34:21;;;;;;;1.87;0.87;;;4.40;99.90;;;;;;5097196;28;20426;-61
2023/02/25 10:36:53;;;;;;;1.93;1.00;;;4.40;99.90;;;;;;5097500;28;20501;-64
2023/02/25 10:39:20;;;;;;;1.40;1.20;;;4.40;99.90;;;;;;5097362;28;20465;-65
2023/02/25 10:41:50;;;;;;;1.60;0.67;;;4.30;99.90;;;;;;5096552;28;20427;-60
2023/02/25 10:44:17;;;;;;;0.90;0.60;;;4.30;99.90;;;;;;5098589;28;20441;-64
2023/02/25 10:46:49;;;;;;;1.60;1.00;;;4.30;99.90;;;;;;5100422;28;20438;-62
2023/02/25 10:49:21;;;;;;;1.30;0.80;;;4.30;99.90;;;;;;5099432;28;20464;-63
2023/02/25 10:52:01;;;;;;;0.80;0.50;;;4.40;99.90;;;;;;5099748;28;20418;-62
2023/02/25 10:54:29;;;;;;;1.57;1.07;;;4.60;99.90;;;;;;5099521;28;20462;-63
2023/02/25 10:56:59;;;;;;;1.00;0.90;;;4.80;99.90;;;;;;5100362;28;20435;-63
2023/02/25 10:59:32;;;;;;;1.50;0.60;;;4.90;99.90;;;;;;5099517;28;20469;-63
2023/02/25 11:02:05;;;;;;;1.20;0.70;;;5.00;99.90;;;;;;5099743;28;20450;-62
2023/02/25 11:04:37;;;;;;;1.13;0.70;;;4.60;99.90;;;;;;5100008;28;20454;-63
2023/02/25 11:07:24;;;;;;;1.63;0.90;;;5.10;99.90;;;;;;5099438;28;20503;-64
2023/02/25 11:10:08;;;;;;;0.87;0.57;;;5.10;99.90;;;;;;5098003;28;20441;-63
2023/02/25 11:12:41;;;;;;;0.90;0.70;;;5.10;99.90;;;;;;5099643;28;20421;-61
2023/02/25 11:15:27;;;;;;;0.90;0.67;;;5.00;99.90;;;;;;5099190;28;20454;-63
2023/02/25 11:17:55;;;;;;;2.53;1.10;;;4.90;99.90;;;;;;5100023;28;20438;-60
2023/02/25 11:20:26;;;;;;;1.00;0.60;;;5.00;99.90;;;;;;5099575;28;20438;-62
2023/02/25 11:22:54;;;;;;;0.97;0.80;;;5.00;99.90;;;;;;5099835;28;20452;-62
2023/02/25 11:25:32;;;;;;;1.20;1.00;;;5.00;99.90;;;;;;5099451;28;20434;-63
2023/02/25 11:27:59;;;;;;;1.17;0.90;;;5.00;99.90;;;;;;5098756;28;20462;-60
2023/02/25 11:30:36;;;;;;;0.87;0.67;;;4.80;99.90;;;;;;5098870;28;20442;-60
2023/02/25 11:33:05;;;;;;;0.93;0.80;;;4.70;99.90;;;;;;5099367;28;20481;-62
2023/02/25 11:35:37;;;;;;;1.30;0.70;;;4.60;99.90;;;;;;5099535;28;20426;-63
2023/02/25 11:38:15;;;;;;;1.57;0.70;;;4.50;99.90;;;;;;5098588;28;20458;-57
2023/02/25 11:40:44;;;;;;;1.10;0.73;;;4.60;99.90;;;;;;5099602;28;20446;-61
2023/02/25 11:43:17;;;;;;;0.90;0.77;;;4.50;99.90;;;;;;5099095;28;20442;-62
2023/02/25 11:45:54;;;;;;;0.90;0.60;;;4.30;99.90;;;;;;5099111;28;20894;-61
2023/02/25 11:48:25;;;;;;;1.77;1.00;;;4.30;99.90;;;;;;5099388;28;20485;-62
2023/02/25 11:51:01;;;;;;;1.63;0.70;;;4.10;99.90;;;;;;5098943;28;20441;-62
2023/02/25 11:53:43;;;;;;;4.73;0.70;;;4.00;99.90;;;;;;5098860;28;20485;-62
2023/02/25 11:56:22;;;;;;;1.83;1.00;;;4.10;99.90;;;;;;5097974;28;20521;-63
2023/02/25 11:59:05;;;;;;;2.43;0.97;;;4.10;99.90;;;;;;5098705;28;20446;-61
2023/02/25 12:01:47;;;;;;;1.50;0.90;;;4.20;99.90;;;;;;5098927;28;20450;-61
2023/02/25 12:04:42;;;;;;;0.80;0.50;;;4.40;99.90;;;;;;5099341;28;20423;-57
2023/02/25 12:07:54;;;;;;;1.00;0.67;;;4.50;99.90;;;;;;5098124;28;20459;-62
2023/02/25 12:10:49;;;;;;;1.83;0.70;;;4.60;99.90;;;;;;5098533;28;20422;-64
2023/02/25 12:13:43;;;;;;;1.43;0.80;;;4.70;99.90;;;;;;5085964;28;20461;-62
2023/02/25 12:16:50;;;;;;;1.27;0.87;;;4.70;99.90;;;;;;5095886;28;20446;-61
2023/02/25 12:19:55;;;;;;;1.23;0.80;;;4.70;99.90;;;;;;5098932;28;20441;-57
2023/02/25 12:23:10;;;;;;;1.20;0.80;;;4.60;99.90;;;;;;5099296;28;20422;-60
2023/02/25 12:25:48;;;;;;;1.30;0.83;;;4.30;99.90;;;;;;5020868;28;20431;-63
2023/02/25 12:29:08;;;;;;;1.30;0.90;;;4.20;99.90;;;;;;5098194;28;20458;-61
2023/02/25 12:32:00;;;;;;;1.20;0.80;;;4.20;99.90;;;;;;5073317;28;20458;-64
2023/02/25 12:35:05;;;;;;;1.93;1.30;;;4.20;99.90;;;;;;5098371;28;20450;-63
2023/02/25 12:38:01;;;;;;;1.37;0.90;;;4.40;99.90;;;;;;5098598;28;20422;-62
2023/02/25 12:40:50;;;;;;;1.30;0.80;;;4.40;99.90;;;;;;5097767;28;20467;-62
2023/02/25 12:43:31;;;;;;;1.63;0.80;;;4.40;99.90;;;;;;5097694;28;20426;-63
2023/02/25 12:46:09;;;;;;;1.30;0.70;;;4.40;99.90;;;;;;5097776;28;20760;-63
2023/02/25 12:49:04;;;;;;;0.87;0.63;;;4.30;99.90;;;;;;5098151;28;20488;-62
2023/02/25 12:51:53;;;;;;;1.40;0.77;;;4.20;99.90;;;;;;5097608;28;20522;-63
2023/02/25 12:54:49;;;;;;;1.00;0.73;;;4.10;99.90;;;;;;5098099;28;20423;-63
2023/02/25 12:57:44;;;;;;;1.57;1.17;;;3.90;99.90;;;;;;5096840;28;20457;-64
2023/02/25 13:00:36;;;;;;;0.90;0.70;;;3.70;99.90;;;;;;5096756;28;20450;-64
2023/02/25 13:03:25;;;;;;;1.30;1.20;;;3.60;99.90;;;;;;5096554;28;20521;-63
2023/02/25 13:06:26;;;;;;;2.33;1.00;;;3.50;99.90;;;;;;5096546;28;20482;-63
2023/02/25 13:09:15;;;;;;;1.10;0.90;;;3.50;99.90;;;;;;5096426;28;20516;-64
2023/02/25 13:11:55;;;;;;;2.57;2.13;;;3.50;99.90;;;;;;5096844;28;20445;-63
2023/02/25 13:14:39;;;;;;;1.30;0.90;;;3.60;99.90;;;;;;5097777;28;20477;-63
2023/02/25 13:17:27;;;;;;;1.10;0.90;;;3.60;99.90;;;;;;5097170;28;20415;-62
2023/02/25 13:20:20;;;;;;;1.57;0.60;;;3.40;99.90;;;;;;5096385;28;20481;-63
2023/02/25 13:22:58;;;;;;;1.00;0.90;;;3.30;99.90;;;;;;5096659;28;20454;-62
2023/02/25 13:25:50;;;;;;;2.20;1.20;;;3.00;99.90;;;;;;5096478;28;20473;-63